Time;durP1;ratioP1;P1;durP2;ratioP2;P2;SDS_P1;SDS_P2;PMS_P1;PMS_P2;Temp;Humidity;BMP_temperature;BMP_pressure;BME280_temperature;BME280_humidity;BME280_pressure;Samples;Min_cycle;Max_cycle;Signal;HPM_P1;HPM_P2
2022/10/13 00:00:56;;;;;;;6.45;4.35;;;11.00;99.90;;;;;;4958248;28;20069;-85
2022/10/13 00:03:22;;;;;;;6.60;4.10;;;11.00;99.90;;;;;;4976107;28;20034;-86
2022/10/13 00:05:51;;;;;;;5.93;3.75;;;11.10;99.90;;;;;;4975500;28;20114;-85
2022/10/13 00:08:20;;;;;;;7.20;4.00;;;11.10;99.90;;;;;;4980602;28;20114;-85
2022/10/13 00:10:49;;;;;;;10.30;4.30;;;11.10;99.90;;;;;;4982935;28;20087;-84
2022/10/13 00:13:16;;;;;;;6.78;4.20;;;11.10;99.90;;;;;;4975597;28;20383;-85
2022/10/13 00:15:45;;;;;;;7.68;4.18;;;11.10;99.90;;;;;;4971714;28;20048;-85
2022/10/13 00:18:12;;;;;;;8.25;4.35;;;11.10;99.90;;;;;;4951068;28;20035;-85
2022/10/13 00:20:45;;;;;;;8.70;4.53;;;11.10;99.90;;;;;;4975197;28;20033;-85
2022/10/13 00:23:18;;;;;;;6.10;3.92;;;11.10;99.90;;;;;;4976133;28;20027;-85
2022/10/13 00:25:46;;;;;;;6.57;4.18;;;11.00;99.90;;;;;;4974286;28;20027;-84
2022/10/13 00:28:12;;;;;;;6.15;3.97;;;11.00;99.90;;;;;;4975979;28;20107;-86
2022/10/13 00:30:39;;;;;;;7.13;4.22;;;11.00;99.90;;;;;;4958344;28;20425;-84
2022/10/13 00:33:06;;;;;;;6.50;4.20;;;11.00;99.90;;;;;;4976173;28;20034;-85
2022/10/13 00:35:32;;;;;;;6.32;4.07;;;11.00;99.90;;;;;;4979319;28;20022;-83
2022/10/13 00:37:58;;;;;;;6.75;4.70;;;11.00;99.90;;;;;;4984427;28;20149;-83
2022/10/13 00:40:24;;;;;;;8.05;4.32;;;11.00;99.90;;;;;;4979178;28;20030;-84
2022/10/13 00:42:50;;;;;;;6.95;4.20;;;11.00;99.90;;;;;;4975850;28;20429;-84
2022/10/13 00:45:28;;;;;;;6.80;4.13;;;11.10;99.90;;;;;;4974150;28;20088;-86
2022/10/13 00:47:59;;;;;;;6.80;4.00;;;11.10;99.90;;;;;;4989900;28;20026;-85
2022/10/13 00:50:30;;;;;;;6.65;3.83;;;11.10;99.90;;;;;;4974101;28;20416;-85
2022/10/13 00:52:58;;;;;;;6.13;3.50;;;11.20;99.90;;;;;;4974389;28;20123;-85
2022/10/13 00:55:29;;;;;;;6.88;3.88;;;11.20;99.90;;;;;;4975483;28;20027;-85
2022/10/13 00:58:01;;;;;;;6.95;4.03;;;11.20;99.90;;;;;;4973841;28;20050;-85
2022/10/13 01:00:29;;;;;;;8.27;4.50;;;11.20;99.90;;;;;;4958069;28;20035;-86
2022/10/13 01:02:55;;;;;;;6.93;4.57;;;11.20;99.90;;;;;;4956029;28;20034;-86
2022/10/13 01:05:21;;;;;;;7.85;4.43;;;11.20;99.90;;;;;;4930326;28;20442;-86
2022/10/13 01:07:51;;;;;;;8.55;4.50;;;11.30;99.90;;;;;;4957684;28;20034;-85
2022/10/13 01:10:30;;;;;;;7.72;4.10;;;11.20;99.90;;;;;;4971572;28;20026;-85
2022/10/13 01:13:19;;;;;;;5.53;3.60;;;11.20;99.90;;;;;;4963835;28;20051;-84
2022/10/13 01:16:09;;;;;;;6.20;3.88;;;11.20;99.90;;;;;;4973411;28;20463;-86
2022/10/13 01:19:12;;;;;;;6.03;3.65;;;11.20;99.90;;;;;;4957681;28;20047;-86
2022/10/13 01:21:45;;;;;;;7.15;3.75;;;11.20;99.90;;;;;;4972764;28;20034;-85
2022/10/13 01:24:33;;;;;;;6.10;4.13;;;11.20;99.90;;;;;;4958449;28;20027;-85
2022/10/13 01:27:29;;;;;;;7.57;3.85;;;11.20;99.90;;;;;;4977043;28;20027;-84
2022/10/13 01:30:09;;;;;;;6.53;3.83;;;11.30;99.90;;;;;;4968945;28;20493;-84
2022/10/13 01:32:53;;;;;;;6.05;4.00;;;11.30;99.90;;;;;;4978481;28;20360;-85
2022/10/13 01:35:21;;;;;;;5.97;3.80;;;11.30;99.90;;;;;;4973794;28;20042;-84
2022/10/13 01:38:21;;;;;;;7.22;4.50;;;11.30;99.90;;;;;;4991750;28;20113;-86
2022/10/13 01:41:02;;;;;;;6.07;4.00;;;11.30;99.90;;;;;;4976975;28;20034;-85
2022/10/13 01:43:38;;;;;;;5.97;4.00;;;11.30;99.90;;;;;;4978241;28;20479;-85
2022/10/13 01:46:07;;;;;;;5.22;3.50;;;11.30;99.90;;;;;;4961307;28;20034;-85
2022/10/13 01:48:36;;;;;;;9.57;4.32;;;11.30;99.90;;;;;;4976965;28;20033;-85
2022/10/13 01:51:05;;;;;;;7.07;3.80;;;11.30;99.90;;;;;;4976928;28;20035;-85
2022/10/13 01:53:31;;;;;;;5.88;4.18;;;11.30;99.90;;;;;;4993199;28;20061;-85
2022/10/13 01:55:59;;;;;;;6.30;3.95;;;11.30;99.90;;;;;;4981678;28;20023;-83
2022/10/13 01:58:29;;;;;;;6.40;3.75;;;11.40;99.90;;;;;;4991881;28;20038;-83
2022/10/13 02:01:13;;;;;;;7.57;3.90;;;11.40;99.90;;;;;;4992159;28;20042;-85
2022/10/13 02:04:14;;;;;;;5.13;3.30;;;11.50;99.90;;;;;;4978790;28;20031;-85
2022/10/13 02:06:51;;;;;;;7.10;3.55;;;11.50;99.90;;;;;;4966180;28;20034;-86
2022/10/13 02:09:28;;;;;;;7.70;4.38;;;11.50;99.90;;;;;;4977648;28;20422;-85
2022/10/13 02:12:01;;;;;;;8.43;4.20;;;11.50;99.90;;;;;;4975453;28;20026;-86
2022/10/13 02:14:31;;;;;;;7.33;4.10;;;11.60;99.90;;;;;;4966175;28;20082;-86
2022/10/13 02:17:00;;;;;;;8.07;4.60;;;11.60;99.90;;;;;;4960661;28;20030;-85
2022/10/13 02:19:33;;;;;;;7.90;4.50;;;11.60;99.90;;;;;;4963358;28;20027;-85
2022/10/13 02:21:59;;;;;;;6.18;4.03;;;11.70;99.90;;;;;;4974153;28;20467;-85
2022/10/13 02:24:27;;;;;;;7.20;4.43;;;11.70;99.90;;;;;;4969070;28;20438;-85
2022/10/13 02:26:53;;;;;;;7.40;4.75;;;11.70;99.90;;;;;;4985405;28;20086;-85
2022/10/13 02:29:19;;;;;;;8.93;3.78;;;11.70;99.90;;;;;;4956507;28;20039;-86
2022/10/13 02:31:48;;;;;;;6.13;4.10;;;11.70;99.90;;;;;;4976356;28;20042;-86
2022/10/13 02:34:14;;;;;;;6.55;4.20;;;11.70;99.90;;;;;;4977748;28;20054;-84
2022/10/13 02:36:40;;;;;;;7.00;4.03;;;11.70;99.90;;;;;;4963929;28;20467;-85
2022/10/13 02:39:07;;;;;;;7.97;4.35;;;11.70;99.90;;;;;;4976385;28;20027;-85
2022/10/13 02:41:33;;;;;;;6.60;4.18;;;11.70;99.90;;;;;;4975820;28;20106;-85
2022/10/13 02:43:59;;;;;;;7.03;4.13;;;11.80;99.90;;;;;;4960076;28;20035;-85
2022/10/13 02:46:26;;;;;;;6.95;4.60;;;11.80;99.90;;;;;;4976262;28;20046;-85
2022/10/13 02:48:52;;;;;;;9.18;4.75;;;11.80;99.90;;;;;;4976846;28;20027;-85
2022/10/13 02:51:18;;;;;;;7.40;5.13;;;11.80;99.90;;;;;;4965534;28;20027;-85
2022/10/13 02:53:45;;;;;;;8.27;5.00;;;11.80;99.90;;;;;;4968128;28;20026;-85
2022/10/13 02:56:11;;;;;;;7.43;4.57;;;11.80;99.90;;;;;;4977179;28;20444;-84
2022/10/13 02:58:37;;;;;;;8.23;4.57;;;11.80;99.90;;;;;;4977124;28;20061;-86
2022/10/13 03:01:07;;;;;;;8.90;5.35;;;11.80;99.90;;;;;;4992120;28;20035;-86
2022/10/13 03:03:33;;;;;;;8.70;4.82;;;11.90;99.90;;;;;;4991991;28;20023;-85
2022/10/13 03:06:00;;;;;;;7.75;5.13;;;11.90;99.90;;;;;;4975683;28;20142;-85
2022/10/13 03:13:24;;;;;;;8.27;5.00;;;11.90;99.90;;;;;;4939089;29;20134;-84
2022/10/13 03:15:50;;;;;;;7.53;4.70;;;12.00;99.90;;;;;;4977567;28;20135;-84
2022/10/13 03:18:16;;;;;;;8.95;5.70;;;12.00;99.90;;;;;;4969154;28;20486;-85
2022/10/13 03:20:42;;;;;;;9.70;5.28;;;12.00;99.90;;;;;;4959311;28;20470;-84
2022/10/13 03:23:08;;;;;;;9.02;5.57;;;12.00;99.90;;;;;;4976531;28;20019;-84
2022/10/13 03:25:35;;;;;;;8.98;5.00;;;12.00;99.90;;;;;;4975245;28;20117;-85
2022/10/13 03:28:01;;;;;;;8.25;5.15;;;12.00;99.90;;;;;;4991548;28;20066;-84
2022/10/13 03:30:31;;;;;;;10.25;5.22;;;12.00;99.90;;;;;;4975479;28;20113;-84
2022/10/13 03:32:56;;;;;;;7.05;4.65;;;12.10;99.90;;;;;;4975311;28;20493;-85
2022/10/13 03:35:22;;;;;;;9.77;5.32;;;12.00;99.90;;;;;;4976796;28;20027;-85
2022/10/13 03:37:48;;;;;;;8.23;5.40;;;12.00;99.90;;;;;;4976092;28;20085;-86
2022/10/13 03:40:14;;;;;;;8.35;4.90;;;12.10;99.90;;;;;;4959321;28;20038;-84
2022/10/13 03:42:40;;;;;;;9.60;5.13;;;12.00;99.90;;;;;;4976324;28;20085;-86
2022/10/13 03:45:08;;;;;;;8.32;5.25;;;12.00;99.90;;;;;;4978102;28;20026;-83
2022/10/13 03:47:37;;;;;;;9.43;5.70;;;12.00;99.90;;;;;;4985637;28;20034;-83
2022/10/13 03:50:04;;;;;;;7.63;5.03;;;12.10;99.90;;;;;;4991936;28;20023;-85
2022/10/13 03:52:30;;;;;;;10.38;5.80;;;12.10;99.90;;;;;;4959825;28;20026;-84
2022/10/13 03:54:56;;;;;;;8.18;4.72;;;12.10;99.90;;;;;;4975322;28;20019;-84
2022/10/13 03:57:22;;;;;;;8.95;5.75;;;12.10;99.90;;;;;;4976581;28;20177;-85
2022/10/13 03:59:48;;;;;;;11.43;6.00;;;12.20;99.90;;;;;;4975191;28;20113;-84
2022/10/13 04:02:14;;;;;;;9.55;5.18;;;12.20;99.90;;;;;;4974982;28;20498;-85
2022/10/13 04:04:40;;;;;;;8.57;4.63;;;12.20;99.90;;;;;;4974904;28;20019;-83
2022/10/13 04:07:07;;;;;;;8.70;5.15;;;12.20;99.90;;;;;;4975097;28;20019;-84
2022/10/13 04:09:34;;;;;;;10.38;6.47;;;12.20;99.90;;;;;;4959197;28;20047;-87
2022/10/13 04:12:05;;;;;;;9.73;5.75;;;12.20;99.90;;;;;;4974636;28;20027;-85
2022/10/13 04:14:34;;;;;;;8.88;6.20;;;12.20;99.90;;;;;;4974388;28;20133;-86
2022/10/13 04:17:05;;;;;;;10.98;6.50;;;12.30;99.90;;;;;;4974429;28;20089;-86
2022/10/13 04:19:37;;;;;;;10.95;6.38;;;12.20;99.90;;;;;;4974367;28;20054;-85
2022/10/13 04:22:03;;;;;;;9.57;6.53;;;12.20;99.90;;;;;;4961641;28;20535;-87
2022/10/13 04:24:31;;;;;;;8.82;5.75;;;12.30;99.90;;;;;;4975434;28;20491;-86
2022/10/13 04:26:56;;;;;;;10.13;5.70;;;12.30;99.90;;;;;;4958267;28;20086;-86
2022/10/13 04:29:23;;;;;;;9.45;5.80;;;12.20;99.90;;;;;;4974747;28;20035;-86
2022/10/13 04:31:54;;;;;;;9.93;6.25;;;12.30;99.90;;;;;;4990400;28;20039;-85
2022/10/13 04:34:20;;;;;;;8.23;5.57;;;12.30;99.90;;;;;;4958594;28;20054;-86
2022/10/13 04:36:50;;;;;;;10.70;6.22;;;12.20;99.90;;;;;;4956849;28;20497;-85
2022/10/13 04:39:19;;;;;;;9.50;5.55;;;12.30;99.90;;;;;;4971219;28;20042;-85
2022/10/13 04:41:46;;;;;;;8.85;5.40;;;12.20;99.90;;;;;;4973261;28;20386;-86
2022/10/13 04:44:12;;;;;;;8.40;5.47;;;12.20;99.90;;;;;;4973908;28;20189;-84
2022/10/13 04:46:37;;;;;;;8.82;5.43;;;12.20;99.90;;;;;;4973421;28;20523;-84
2022/10/13 04:49:04;;;;;;;8.75;5.07;;;12.20;99.90;;;;;;4973630;28;20033;-85
2022/10/13 04:51:31;;;;;;;6.63;4.25;;;12.20;99.90;;;;;;4957548;28;20418;-85
2022/10/13 04:53:59;;;;;;;8.27;5.05;;;12.10;99.90;;;;;;4957019;28;20122;-84
2022/10/13 04:56:26;;;;;;;7.78;4.63;;;12.10;99.90;;;;;;4972930;28;20052;-84
2022/10/13 04:58:54;;;;;;;8.30;4.85;;;12.20;99.90;;;;;;4957342;28;20031;-83
2022/10/13 05:01:28;;;;;;;8.43;5.40;;;12.20;99.90;;;;;;4968598;28;20023;-85
2022/10/13 05:03:59;;;;;;;8.55;4.90;;;12.20;99.90;;;;;;4973010;28;20023;-84
2022/10/13 05:06:30;;;;;;;7.90;5.07;;;12.10;99.90;;;;;;4969616;28;20031;-85
2022/10/13 05:08:59;;;;;;;7.47;5.25;;;12.10;99.90;;;;;;4969066;28;20019;-85
2022/10/13 05:11:26;;;;;;;8.55;5.55;;;12.10;99.90;;;;;;4979687;28;20172;-85
2022/10/13 05:13:54;;;;;;;9.68;6.03;;;12.20;99.90;;;;;;4972451;28;20043;-85
2022/10/13 05:16:21;;;;;;;10.60;6.05;;;12.10;99.90;;;;;;4956788;28;20035;-84
2022/10/13 05:18:48;;;;;;;9.05;5.28;;;12.20;99.90;;;;;;4972331;28;20027;-84
2022/10/13 05:21:21;;;;;;;11.07;5.40;;;12.20;99.90;;;;;;4962173;28;20125;-85
2022/10/13 05:23:47;;;;;;;7.70;5.00;;;12.20;99.90;;;;;;4971184;28;20023;-86
2022/10/13 05:26:16;;;;;;;8.35;5.95;;;12.20;99.90;;;;;;4972502;28;20027;-85
2022/10/13 05:28:45;;;;;;;8.50;5.25;;;12.20;99.90;;;;;;4974536;28;20027;-85
2022/10/13 05:31:20;;;;;;;8.75;5.07;;;12.30;99.90;;;;;;4957437;28;20031;-84
2022/10/13 05:33:47;;;;;;;8.77;5.25;;;12.30;99.90;;;;;;4974231;28;20046;-84
2022/10/13 05:36:31;;;;;;;9.15;5.45;;;12.30;99.90;;;;;;4987144;28;20201;-82
2022/10/13 05:39:01;;;;;;;8.88;5.78;;;12.40;99.90;;;;;;4992979;28;20031;-83
2022/10/13 05:41:28;;;;;;;11.18;6.47;;;12.40;99.90;;;;;;4981590;28;20082;-85
2022/10/13 05:44:06;;;;;;;8.10;5.78;;;12.40;99.90;;;;;;4975908;28;20027;-84
2022/10/13 05:46:32;;;;;;;9.40;5.70;;;12.50;99.90;;;;;;4973984;28;20033;-85
2022/10/13 05:48:58;;;;;;;8.95;5.43;;;12.40;99.90;;;;;;4974951;28;20390;-85
2022/10/13 05:51:34;;;;;;;9.02;5.40;;;12.40;99.90;;;;;;4973872;28;20105;-85
2022/10/13 05:54:09;;;;;;;9.70;5.63;;;12.50;99.90;;;;;;4973442;28;20031;-85
2022/10/13 05:56:43;;;;;;;8.23;6.03;;;12.50;99.90;;;;;;4973753;28;20062;-85
2022/10/13 05:59:12;;;;;;;8.48;5.28;;;12.50;99.90;;;;;;4958423;28;20031;-85
2022/10/13 06:01:44;;;;;;;6.97;4.90;;;12.50;99.90;;;;;;4957556;28;20042;-85
2022/10/13 06:04:34;;;;;;;7.55;5.15;;;12.50;99.90;;;;;;4974422;28;20026;-85
2022/10/13 06:07:03;;;;;;;8.55;5.10;;;12.50;99.90;;;;;;4967870;28;20363;-84
2022/10/13 06:09:33;;;;;;;7.55;5.20;;;12.50;99.90;;;;;;4973756;28;20030;-86
2022/10/13 06:12:07;;;;;;;9.38;5.00;;;12.50;99.90;;;;;;4977909;28;20050;-86
2022/10/13 06:14:34;;;;;;;10.65;4.90;;;12.50;99.90;;;;;;4985948;28;20051;-87
2022/10/13 06:17:00;;;;;;;8.93;5.05;;;12.50;99.90;;;;;;4976844;28;20039;-86
2022/10/13 06:19:26;;;;;;;7.25;5.07;;;12.50;99.90;;;;;;4976649;28;20047;-85
2022/10/13 06:22:14;;;;;;;8.18;5.10;;;12.60;99.90;;;;;;4971821;28;20026;-85
2022/10/13 06:24:45;;;;;;;11.40;6.53;;;12.60;99.90;;;;;;4976182;28;20570;-85
2022/10/13 06:27:11;;;;;;;7.88;5.07;;;12.50;99.90;;;;;;4976489;28;20113;-84
2022/10/13 06:29:38;;;;;;;8.48;5.15;;;12.50;99.90;;;;;;4976819;28;20046;-85
2022/10/13 06:32:13;;;;;;;9.35;5.00;;;12.50;99.90;;;;;;4960915;28;20030;-84
2022/10/13 06:34:46;;;;;;;9.18;5.40;;;12.40;99.90;;;;;;4977588;28;20113;-85
2022/10/13 06:37:29;;;;;;;9.77;5.32;;;12.50;99.90;;;;;;4976958;28;20026;-85
2022/10/13 06:39:58;;;;;;;7.85;4.68;;;12.50;99.90;;;;;;4977000;28;20030;-85
2022/10/13 06:42:32;;;;;;;10.02;4.82;;;12.50;99.90;;;;;;4979021;28;20034;-86
2022/10/13 06:45:01;;;;;;;8.30;4.43;;;12.50;99.90;;;;;;4961050;28;20046;-85
2022/10/13 06:47:35;;;;;;;6.85;4.43;;;12.50;99.90;;;;;;4963978;28;20430;-85
2022/10/13 06:50:15;;;;;;;7.03;4.30;;;12.60;99.90;;;;;;4963724;28;20023;-85
2022/10/13 06:52:46;;;;;;;7.47;4.10;;;12.60;99.90;;;;;;4992784;28;20471;-87
2022/10/13 06:55:16;;;;;;;6.60;4.55;;;12.60;99.90;;;;;;4976591;28;20038;-86
2022/10/13 06:57:53;;;;;;;8.27;4.65;;;12.60;99.90;;;;;;4976359;28;20054;-86
2022/10/13 07:00:26;;;;;;;8.75;5.10;;;12.60;99.90;;;;;;4976074;28;20038;-85
2022/10/13 07:03:01;;;;;;;9.98;5.70;;;12.60;99.90;;;;;;4976108;28;20114;-85
2022/10/13 07:05:29;;;;;;;9.77;5.90;;;12.60;99.90;;;;;;4960153;28;20034;-86
2022/10/13 07:07:57;;;;;;;8.75;5.60;;;12.60;99.90;;;;;;4975867;28;20035;-87
2022/10/13 07:10:25;;;;;;;9.07;5.22;;;12.60;99.90;;;;;;4976504;28;20023;-88
2022/10/13 07:13:02;;;;;;;10.90;6.25;;;12.70;99.90;;;;;;4975528;28;20094;-86
2022/10/13 07:15:45;;;;;;;8.70;5.82;;;12.70;99.90;;;;;;4975608;28;20390;-86
2022/10/13 07:18:14;;;;;;;7.33;5.43;;;12.70;99.90;;;;;;4960363;28;20046;-85
2022/10/13 07:20:41;;;;;;;10.20;6.40;;;12.70;99.90;;;;;;4974511;28;20259;-86
2022/10/13 07:23:10;;;;;;;9.63;5.78;;;12.70;99.90;;;;;;4980679;28;20033;-86
2022/10/13 07:25:36;;;;;;;7.82;5.03;;;12.80;99.90;;;;;;4991830;28;20023;-85
2022/10/13 07:28:02;;;;;;;9.20;5.03;;;12.80;99.90;;;;;;5012655;28;20039;-85
2022/10/13 07:30:28;;;;;;;9.20;5.28;;;12.80;99.90;;;;;;4999298;28;20525;-86
2022/10/13 07:32:54;;;;;;;6.18;4.57;;;12.90;99.90;;;;;;5011732;28;20375;-88
2022/10/13 07:35:21;;;;;;;8.55;4.85;;;12.90;99.90;;;;;;4977689;28;20030;-87
2022/10/13 07:37:52;;;;;;;8.73;5.15;;;12.90;99.90;;;;;;4961147;28;20035;-87
2022/10/13 07:40:18;;;;;;;9.43;5.25;;;12.90;99.90;;;;;;4976622;28;20573;-87
2022/10/13 07:42:48;;;;;;;7.25;5.00;;;12.90;99.90;;;;;;4960431;28;20035;-87
2022/10/13 07:45:19;;;;;;;8.88;5.70;;;12.90;99.90;;;;;;4960410;28;20041;-87
2022/10/13 07:47:48;;;;;;;10.38;5.93;;;12.90;99.90;;;;;;4975737;28;20026;-87
2022/10/13 07:50:17;;;;;;;9.73;5.53;;;12.90;99.90;;;;;;4976790;28;20058;-86
2022/10/13 07:52:43;;;;;;;10.55;6.20;;;12.90;99.90;;;;;;4991238;28;20027;-87
2022/10/13 07:55:09;;;;;;;12.40;6.07;;;12.90;99.90;;;;;;4943365;28;20114;-86
2022/10/13 07:57:35;;;;;;;9.57;6.38;;;12.90;99.90;;;;;;4975061;28;20030;-86
2022/10/13 08:00:04;;;;;;;8.90;5.68;;;12.90;99.90;;;;;;4975095;28;20031;-87
2022/10/13 08:02:31;;;;;;;12.05;6.75;;;12.90;99.90;;;;;;4975942;28;20189;-87
2022/10/13 08:04:58;;;;;;;9.27;5.60;;;12.90;99.90;;;;;;4975198;28;20023;-86
2022/10/13 08:07:24;;;;;;;9.85;6.10;;;13.00;99.90;;;;;;4976490;28;20133;-86
2022/10/13 08:09:50;;;;;;;9.25;5.25;;;13.10;99.90;;;;;;4976129;28;20026;-86
2022/10/13 08:12:16;;;;;;;9.50;5.47;;;13.10;99.90;;;;;;4990775;28;20023;-86
2022/10/13 08:14:48;;;;;;;9.07;5.22;;;13.20;99.90;;;;;;4974673;28;20134;-86
2022/10/13 08:17:15;;;;;;;9.48;5.93;;;13.20;99.90;;;;;;4975673;28;20498;-85
2022/10/13 08:19:40;;;;;;;8.40;5.93;;;13.30;99.90;;;;;;4958665;28;20475;-86
2022/10/13 08:22:08;;;;;;;8.20;5.10;;;13.40;99.90;;;;;;4974677;28;20031;-86
2022/10/13 08:24:33;;;;;;;9.20;6.18;;;13.40;99.90;;;;;;4974838;28;20045;-85
2022/10/13 08:27:04;;;;;;;9.68;5.50;;;13.50;99.90;;;;;;4974422;28;20035;-85
2022/10/13 08:29:30;;;;;;;7.97;5.47;;;13.60;99.90;;;;;;4973810;28;20023;-86
2022/10/13 08:31:56;;;;;;;9.90;6.43;;;13.60;99.90;;;;;;4975785;28;20074;-87
2022/10/13 08:34:23;;;;;;;10.00;6.53;;;13.70;99.90;;;;;;4990238;28;20015;-86
2022/10/13 08:36:53;;;;;;;10.82;6.05;;;13.80;99.90;;;;;;4975259;28;20030;-86
2022/10/13 08:39:21;;;;;;;9.85;6.43;;;13.80;99.90;;;;;;4975303;28;20031;-87
2022/10/13 08:41:47;;;;;;;9.82;6.72;;;13.90;99.90;;;;;;4976185;28;20058;-86
2022/10/13 08:44:20;;;;;;;10.25;6.35;;;13.90;99.90;;;;;;4974835;28;20031;-86
2022/10/13 08:46:54;;;;;;;8.93;5.85;;;13.90;99.90;;;;;;4974450;28;20054;-88
2022/10/13 08:49:23;;;;;;;10.68;6.60;;;14.00;99.90;;;;;;4974330;28;20134;-87
2022/10/13 08:51:53;;;;;;;8.13;5.80;;;13.90;99.90;;;;;;4957889;28;20023;-87
2022/10/13 08:54:20;;;;;;;12.20;5.95;;;13.90;99.90;;;;;;4990164;28;20054;-87
2022/10/13 08:56:49;;;;;;;9.32;5.60;;;14.00;99.90;;;;;;4973480;28;20027;-87
2022/10/13 08:59:17;;;;;;;10.45;6.70;;;14.00;99.90;;;;;;4974619;28;20031;-87
2022/10/13 09:01:47;;;;;;;11.98;6.22;;;14.00;99.90;;;;;;4958373;28;20023;-86
2022/10/13 09:04:35;;;;;;;9.20;5.72;;;14.10;99.90;;;;;;4974155;28;20462;-86
2022/10/13 09:07:20;;;;;;;9.40;6.10;;;14.20;99.90;;;;;;4980118;28;20026;-87
2022/10/13 09:09:50;;;;;;;11.43;7.13;;;14.30;99.90;;;;;;4975033;28;20508;-86
2022/10/13 09:12:23;;;;;;;9.43;6.35;;;14.40;99.90;;;;;;4974629;28;20110;-86
2022/10/13 09:15:14;;;;;;;9.07;5.72;;;14.60;99.90;;;;;;4973254;28;20089;-87
2022/10/13 09:17:41;;;;;;;8.80;6.13;;;15.10;99.90;;;;;;4974292;28;20089;-87
2022/10/13 09:20:24;;;;;;;12.57;6.78;;;15.70;99.90;;;;;;4956951;28;20034;-87
2022/10/13 09:23:16;;;;;;;11.25;6.35;;;16.10;99.90;;;;;;4993578;28;20016;-87
2022/10/13 09:25:48;;;;;;;9.27;5.53;;;16.20;99.90;;;;;;4989741;28;20014;-86
2022/10/13 09:28:31;;;;;;;10.57;6.40;;;16.10;99.90;;;;;;4997882;28;20019;-86
2022/10/13 09:31:26;;;;;;;;;;;16.00;99.90;;;;;;4970547;28;20019;-88
2022/10/13 09:34:01;;;;;;;8.10;5.50;;;15.90;99.90;;;;;;4979984;28;19953;-88
2022/10/13 09:36:28;;;;;;;8.25;5.50;;;15.80;99.90;;;;;;4968433;28;20023;-88
2022/10/13 09:39:06;;;;;;;10.70;5.78;;;15.70;99.90;;;;;;4974831;28;20023;-87
2022/10/13 09:41:32;;;;;;;8.98;5.63;;;15.80;99.90;;;;;;4958007;28;20063;-88
2022/10/13 09:44:12;;;;;;;8.10;5.07;;;15.90;99.90;;;;;;4973793;28;20023;-87
2022/10/13 09:47:13;;;;;;;9.23;5.70;;;15.90;99.90;;;;;;4975317;28;20210;-87
2022/10/13 09:49:42;;;;;;;11.18;5.93;;;15.90;99.90;;;;;;4967402;28;20501;-87
2022/10/13 09:52:20;;;;;;;9.80;6.43;;;15.80;99.90;;;;;;4988198;28;20019;-86
2022/10/13 09:54:55;;;;;;;10.32;6.10;;;15.80;99.90;;;;;;4966965;28;20023;-86
2022/10/13 09:57:50;;;;;;;10.25;5.78;;;15.80;99.90;;;;;;4976506;28;20466;-86
2022/10/13 10:00:33;;;;;;;8.70;6.10;;;15.90;99.90;;;;;;4977015;28;20470;-86
2022/10/13 10:03:29;;;;;;;8.38;5.22;;;15.90;99.90;;;;;;4992530;28;20023;-86
2022/10/13 10:06:05;;;;;;;10.07;5.63;;;16.00;99.90;;;;;;4977028;28;20041;-86
2022/10/13 10:09:00;;;;;;;10.07;5.60;;;16.00;99.90;;;;;;4976931;28;20015;-85
2022/10/13 10:11:43;;;;;;;9.70;5.97;;;16.00;99.90;;;;;;4984359;28;20027;-86
2022/10/13 10:14:31;;;;;;;11.60;6.88;;;16.00;99.90;;;;;;4989484;28;20053;-86
2022/10/13 10:17:18;;;;;;;11.68;7.30;;;16.10;99.90;;;;;;4991079;28;20055;-86
2022/10/13 10:20:01;;;;;;;9.07;6.30;;;16.00;99.90;;;;;;4976348;28;20027;-86
2022/10/13 10:23:06;;;;;;;9.45;6.38;;;16.00;99.90;;;;;;4990917;28;20022;-89
2022/10/13 10:26:03;;;;;;;9.07;5.60;;;16.00;99.90;;;;;;4974420;28;20027;-87
2022/10/13 10:28:45;;;;;;;9.18;6.05;;;15.90;99.90;;;;;;4976161;28;20196;-87
2022/10/13 10:31:43;;;;;;;9.60;5.70;;;15.80;99.90;;;;;;4976769;28;20031;-87
2022/10/13 10:34:42;;;;;;;8.07;4.85;;;15.80;99.90;;;;;;4967273;28;20034;-86
2022/10/13 10:37:20;;;;;;;8.88;5.00;;;15.80;99.90;;;;;;4975155;28;20054;-87
2022/10/13 10:39:58;;;;;;;9.20;5.68;;;15.70;99.90;;;;;;4962907;28;20102;-87
2022/10/13 10:42:39;;;;;;;8.48;5.40;;;15.70;99.90;;;;;;4977127;28;20035;-87
2022/10/13 10:45:16;;;;;;;7.93;4.95;;;15.70;99.90;;;;;;4975415;28;20086;-87
2022/10/13 10:47:55;;;;;;;8.98;5.28;;;15.70;99.90;;;;;;4974384;28;20046;-87
2022/10/13 10:50:22;;;;;;;10.95;5.63;;;15.70;99.90;;;;;;4974587;28;20035;-86
2022/10/13 10:53:14;;;;;;;11.57;6.30;;;15.70;99.90;;;;;;4975261;28;20106;-87
2022/10/13 10:56:14;;;;;;;10.30;5.97;;;15.70;99.90;;;;;;4987661;28;20033;-87
2022/10/13 10:58:52;;;;;;;12.82;7.25;;;15.60;99.90;;;;;;4973169;28;20038;-87
2022/10/13 11:02:03;;;;;;;8.77;5.93;;;15.50;99.90;;;;;;4975073;28;20026;-88
2022/10/13 11:04:44;;;;;;;10.00;5.95;;;15.30;99.90;;;;;;4971698;28;20027;-86
2022/10/13 11:07:21;;;;;;;9.00;6.43;;;15.10;99.90;;;;;;4971899;28;20042;-85
2022/10/13 11:09:48;;;;;;;8.77;5.55;;;14.90;99.90;;;;;;4974148;28;20486;-84
2022/10/13 11:12:43;;;;;;;7.93;5.30;;;14.70;99.90;;;;;;4975612;28;20038;-84
2022/10/13 11:15:23;;;;;;;8.65;5.40;;;14.50;99.90;;;;;;4988986;28;20437;-84
2022/10/13 11:17:49;;;;;;;10.13;5.72;;;14.30;99.90;;;;;;4974845;28;20050;-86
2022/10/13 11:20:21;;;;;;;8.40;5.70;;;14.20;99.90;;;;;;4973339;28;20031;-86
2022/10/13 11:22:59;;;;;;;8.43;6.07;;;14.10;99.90;;;;;;4990768;28;20034;-82
2022/10/13 11:25:38;;;;;;;10.88;6.75;;;14.00;99.90;;;;;;4991954;28;20114;-82
2022/10/13 11:28:19;;;;;;;9.50;6.63;;;13.90;99.90;;;;;;4963923;28;20377;-83
2022/10/13 11:31:16;;;;;;;9.82;6.20;;;13.80;99.90;;;;;;4964800;28;20161;-82
2022/10/13 11:33:41;;;;;;;9.95;6.72;;;13.80;99.90;;;;;;4984868;28;20311;-82
2022/10/13 11:37:05;;;;;;;9.98;7.20;;;13.70;99.90;;;;;;4964904;28;20047;-83
2022/10/13 11:40:20;;;;;;;11.95;6.82;;;13.70;99.90;;;;;;4911996;29;20437;-84
2022/10/13 11:43:23;;;;;;;11.98;7.90;;;13.70;99.90;;;;;;4879216;29;20047;-83
2022/10/13 11:45:58;;;;;;;11.25;7.10;;;13.70;99.90;;;;;;4917260;29;20180;-83
2022/10/13 11:48:47;;;;;;;12.43;8.50;;;13.60;99.90;;;;;;4913760;29;20099;-83
2022/10/13 11:51:28;;;;;;;13.68;9.00;;;13.60;99.90;;;;;;4948286;28;20046;-83
2022/10/13 11:54:15;;;;;;;12.48;7.80;;;13.60;99.90;;;;;;4967592;28;20034;-83
2022/10/13 11:56:53;;;;;;;10.50;7.13;;;13.60;99.90;;;;;;4969885;28;20038;-82
2022/10/13 11:59:26;;;;;;;10.60;7.68;;;13.60;99.90;;;;;;4957989;28;20032;-82
2022/10/13 12:02:15;;;;;;;11.25;8.05;;;13.50;99.90;;;;;;4967541;28;20446;-82
2022/10/13 12:04:44;;;;;;;13.98;8.80;;;13.50;99.90;;;;;;4966952;28;20045;-83
2022/10/13 12:07:14;;;;;;;12.43;7.75;;;13.50;99.90;;;;;;4967571;28;20058;-83
2022/10/13 12:09:56;;;;;;;11.48;8.23;;;13.50;99.90;;;;;;4968082;28;20027;-83
2022/10/13 12:12:23;;;;;;;11.07;8.25;;;13.50;99.90;;;;;;4962025;28;20037;-83
2022/10/13 12:14:58;;;;;;;10.50;7.40;;;13.50;99.90;;;;;;4965996;28;20059;-83
2022/10/13 12:17:30;;;;;;;11.07;7.25;;;13.50;99.90;;;;;;4963548;28;20113;-82
2022/10/13 12:20:02;;;;;;;11.55;8.32;;;13.50;99.90;;;;;;4963544;28;20023;-82
2022/10/13 12:22:32;;;;;;;12.25;8.70;;;13.50;99.90;;;;;;4967917;28;20076;-82
2022/10/13 12:25:14;;;;;;;10.27;7.40;;;13.50;99.90;;;;;;4984257;28;20137;-82
2022/10/13 12:27:49;;;;;;;10.30;6.55;;;13.40;99.90;;;;;;4967003;28;20041;-82
2022/10/13 12:30:35;;;;;;;10.35;7.03;;;13.40;99.90;;;;;;4966688;28;20465;-83
2022/10/13 12:33:21;;;;;;;13.32;8.07;;;13.40;99.90;;;;;;4978475;28;20101;-81
2022/10/13 12:35:50;;;;;;;11.90;7.53;;;13.40;99.90;;;;;;4962167;28;20015;-82
2022/10/13 12:38:20;;;;;;;11.60;7.70;;;13.50;99.90;;;;;;4965446;28;20153;-82
2022/10/13 12:40:54;;;;;;;10.02;6.82;;;13.50;99.90;;;;;;4951785;28;20399;-83
2022/10/13 12:43:26;;;;;;;10.10;7.47;;;13.50;99.90;;;;;;4964554;28;20015;-82
2022/10/13 12:45:52;;;;;;;9.88;7.45;;;13.60;99.90;;;;;;4965528;28;20026;-83
2022/10/13 12:48:50;;;;;;;10.57;8.25;;;13.50;99.90;;;;;;4967077;28;20101;-83
2022/10/13 12:51:21;;;;;;;12.20;8.25;;;13.50;99.90;;;;;;4954771;28;20117;-82
2022/10/13 12:53:47;;;;;;;11.63;7.43;;;13.50;99.90;;;;;;4968159;28;20074;-82
2022/10/13 12:56:32;;;;;;;8.73;6.30;;;13.40;99.90;;;;;;4964895;28;20030;-82
2022/10/13 12:58:59;;;;;;;8.98;5.70;;;13.40;99.90;;;;;;4963958;28;20508;-83
2022/10/13 13:01:27;;;;;;;8.48;6.38;;;13.40;99.90;;;;;;4966666;28;20470;-82
2022/10/13 13:04:17;;;;;;;9.50;6.32;;;13.40;99.90;;;;;;4960649;28;20077;-83
2022/10/13 13:07:02;;;;;;;10.45;6.50;;;13.50;99.90;;;;;;4948332;28;20491;-82
2022/10/13 13:09:37;;;;;;;10.18;5.53;;;13.50;99.90;;;;;;4960058;28;20049;-83
2022/10/13 13:12:18;;;;;;;10.25;6.47;;;13.50;99.90;;;;;;4961856;28;20031;-82
2022/10/13 13:14:53;;;;;;;7.93;5.50;;;13.60;99.90;;;;;;4963289;28;20078;-81
2022/10/13 13:17:27;;;;;;;8.07;5.32;;;13.60;99.90;;;;;;4964581;28;20039;-80
2022/10/13 13:20:17;;;;;;;7.43;5.40;;;13.60;99.90;;;;;;4970160;28;20030;-82
2022/10/13 13:22:49;;;;;;;7.93;5.07;;;13.60;99.90;;;;;;4973427;28;20050;-83